Time;durP1;ratioP1;P1;durP2;ratioP2;P2;SDS_P1;SDS_P2;PMS_P1;PMS_P2;Temp;Humidity;BMP_temperature;BMP_pressure;BME280_temperature;BME280_humidity;BME280_pressure;Samples;Min_cycle;Max_cycle;Signal;HPM_P1;HPM_P2
2022/11/19 05:02:42;;;;;;;2.43;2.23;;;7.70;99.90;;;;;;4908785;29;20576;-72
2022/11/19 05:05:11;;;;;;;3.33;2.33;;;7.70;99.90;;;;;;4911063;29;20459;-72
2022/11/19 05:07:38;;;;;;;3.63;1.90;;;7.70;99.90;;;;;;4911195;29;20832;-73
2022/11/19 05:10:05;;;;;;;2.00;1.90;;;7.70;99.90;;;;;;4911927;29;20825;-73
2022/11/19 05:12:32;;;;;;;4.03;2.17;;;7.70;99.90;;;;;;4910636;29;21066;-72
2022/11/19 05:14:59;;;;;;;2.37;2.17;;;7.70;99.90;;;;;;4911313;29;20470;-72
2022/11/19 05:17:26;;;;;;;5.73;2.47;;;7.80;99.90;;;;;;4911040;29;20463;-73
2022/11/19 05:19:54;;;;;;;3.27;2.40;;;7.80;99.90;;;;;;4910888;29;20463;-73
2022/11/19 05:22:21;;;;;;;2.80;2.60;;;7.70;99.90;;;;;;4910784;29;20475;-73
2022/11/19 05:24:47;;;;;;;2.23;2.03;;;7.70;99.90;;;;;;4910999;29;20459;-72
2022/11/19 05:27:14;;;;;;;3.50;2.77;;;7.70;99.90;;;;;;4910455;29;20494;-73
2022/11/19 05:29:41;;;;;;;4.00;2.30;;;7.70;99.90;;;;;;4910788;29;20960;-73
2022/11/19 05:32:08;;;;;;;2.73;2.53;;;7.70;99.90;;;;;;4910227;29;21015;-72
2022/11/19 05:34:34;;;;;;;3.50;2.70;;;7.70;99.90;;;;;;4910933;29;20893;-73
2022/11/19 05:37:02;;;;;;;3.17;2.50;;;7.80;99.90;;;;;;4910949;29;20459;-73
2022/11/19 05:39:29;;;;;;;3.27;2.97;;;7.80;99.90;;;;;;4910985;29;20470;-72
2022/11/19 05:41:56;;;;;;;5.43;2.50;;;7.80;99.90;;;;;;4909964;29;20494;-73
2022/11/19 05:44:23;;;;;;;3.57;3.10;;;7.70;99.90;;;;;;4910718;29;20459;-74
2022/11/19 05:46:50;;;;;;;5.77;3.20;;;7.80;99.90;;;;;;4911097;29;20498;-73
2022/11/19 05:49:17;;;;;;;3.67;3.00;;;7.80;99.90;;;;;;4911090;29;20538;-73
2022/11/19 05:51:45;;;;;;;8.30;3.07;;;7.80;99.90;;;;;;4910523;29;20475;-73
2022/11/19 05:54:13;;;;;;;2.53;2.33;;;7.80;99.90;;;;;;4910736;29;20963;-73
2022/11/19 05:56:40;;;;;;;5.33;2.57;;;7.80;99.90;;;;;;4911105;29;20956;-73
2022/11/19 05:59:07;;;;;;;6.20;3.40;;;7.80;99.90;;;;;;4910397;29;20463;-72
2022/11/19 06:01:34;;;;;;;5.33;2.93;;;7.90;99.90;;;;;;4910700;29;20495;-73
2022/11/19 06:04:00;;;;;;;5.87;3.23;;;7.90;99.90;;;;;;4911062;29;20471;-73
2022/11/19 06:06:27;;;;;;;4.97;3.20;;;8.00;99.90;;;;;;4910260;29;20459;-72
2022/11/19 06:08:54;;;;;;;2.80;2.60;;;8.00;99.90;;;;;;4910776;29;20460;-72
2022/11/19 06:14:06;;;;;;;8.60;3.07;;;7.90;99.90;;;;;;4910340;29;20483;-73
2022/11/19 06:16:33;;;;;;;2.93;2.50;;;7.90;99.90;;;;;;4910730;29;20555;-72
2022/11/19 06:19:00;;;;;;;3.53;2.70;;;7.80;99.90;;;;;;4910786;29;20475;-73
2022/11/19 06:21:27;;;;;;;4.57;3.13;;;7.90;99.90;;;;;;4910793;29;20506;-73
2022/11/19 06:23:55;;;;;;;6.20;2.90;;;7.90;99.90;;;;;;4909668;29;20463;-73
2022/11/19 06:26:24;;;;;;;4.60;3.10;;;7.90;99.90;;;;;;4910497;29;20459;-73
2022/11/19 06:28:51;;;;;;;3.33;3.03;;;7.90;99.90;;;;;;4911135;29;20466;-73
2022/11/19 06:31:18;;;;;;;4.93;3.13;;;7.90;99.90;;;;;;4910676;29;20894;-72
2022/11/19 06:33:45;;;;;;;3.67;3.27;;;7.90;99.90;;;;;;4910132;29;20463;-73
2022/11/19 06:36:12;;;;;;;6.43;3.37;;;7.90;99.90;;;;;;4910658;29;20463;-72
2022/11/19 06:38:39;;;;;;;7.20;3.50;;;7.90;99.90;;;;;;4910963;29;20470;-72
2022/11/19 06:41:06;;;;;;;5.10;3.50;;;7.90;99.90;;;;;;4911380;29;20494;-75
2022/11/19 06:43:34;;;;;;;5.43;3.33;;;7.90;99.90;;;;;;4910099;29;20944;-74
2022/11/19 06:46:01;;;;;;;8.10;3.60;;;7.90;99.90;;;;;;4910963;29;20463;-73
2022/11/19 06:48:28;;;;;;;4.00;3.20;;;7.90;99.90;;;;;;4915042;29;21022;-74
2022/11/19 06:50:55;;;;;;;3.60;3.20;;;7.90;99.90;;;;;;4929736;29;20846;-74
2022/11/19 06:53:23;;;;;;;4.17;3.60;;;7.80;99.90;;;;;;4929067;29;20454;-74
2022/11/19 06:55:56;;;;;;;5.10;3.23;;;7.80;99.90;;;;;;4929618;29;20462;-74
2022/11/19 06:58:23;;;;;;;3.83;3.20;;;7.80;99.90;;;;;;4930011;29;20473;-74
2022/11/19 07:00:51;;;;;;;4.17;3.00;;;7.80;99.90;;;;;;4929616;29;20498;-73
2022/11/19 07:03:18;;;;;;;4.30;2.97;;;7.80;99.90;;;;;;4928879;29;20470;-75
2022/11/19 07:05:45;;;;;;;3.13;2.83;;;7.80;99.90;;;;;;4929577;29;20472;-75
2022/11/19 07:08:11;;;;;;;5.67;3.37;;;7.80;99.90;;;;;;4929734;29;20542;-76
2022/11/19 07:10:38;;;;;;;4.93;3.00;;;7.80;99.90;;;;;;4928774;29;20493;-71
2022/11/19 07:13:05;;;;;;;3.80;3.50;;;7.80;99.90;;;;;;4928968;29;20458;-71
2022/11/19 07:15:32;;;;;;;5.47;3.40;;;7.80;99.90;;;;;;4929368;29;20466;-74
2022/11/19 07:18:01;;;;;;;4.60;3.57;;;7.80;99.90;;;;;;4929479;29;20814;-74
2022/11/19 07:20:28;;;;;;;7.33;3.80;;;7.80;99.90;;;;;;4929164;29;20488;-74
2022/11/19 07:22:54;;;;;;;7.83;3.97;;;7.80;99.90;;;;;;4928514;29;20830;-75
2022/11/19 07:25:21;;;;;;;5.27;3.93;;;7.80;99.90;;;;;;4929256;29;20979;-74
2022/11/19 07:27:48;;;;;;;5.50;3.63;;;7.90;99.90;;;;;;4929022;29;20494;-73
2022/11/19 07:30:16;;;;;;;5.47;3.80;;;7.90;99.90;;;;;;4929213;29;20469;-72
2022/11/19 07:32:43;;;;;;;3.57;3.27;;;7.90;99.90;;;;;;4928641;29;20898;-75
2022/11/19 07:35:11;;;;;;;4.30;3.43;;;7.80;99.90;;;;;;4929002;29;20530;-75
2022/11/19 07:37:38;;;;;;;3.97;3.53;;;7.80;99.90;;;;;;4929128;29;20466;-74
2022/11/19 07:40:06;;;;;;;5.23;3.83;;;7.80;99.90;;;;;;4929125;29;21303;-75
2022/11/19 07:42:51;;;;;;;5.97;3.60;;;7.80;99.90;;;;;;4928648;29;20482;-76
2022/11/19 07:45:20;;;;;;;5.13;3.70;;;7.80;99.90;;;;;;4929525;29;20842;-74
2022/11/19 07:47:48;;;;;;;4.20;3.80;;;7.80;99.90;;;;;;4928618;29;20498;-75
2022/11/19 07:50:20;;;;;;;4.43;4.00;;;7.80;99.90;;;;;;4928788;29;20463;-75
2022/11/19 07:52:47;;;;;;;7.60;3.70;;;7.80;99.90;;;;;;4928602;29;20466;-74
2022/11/19 07:55:14;;;;;;;4.07;3.47;;;7.80;99.90;;;;;;4928247;29;20460;-76
2022/11/19 07:57:41;;;;;;;5.63;4.07;;;8.00;99.90;;;;;;4928810;29;20731;-75
2022/11/19 08:00:08;;;;;;;7.13;5.80;;;8.00;99.90;;;;;;4928867;29;20975;-76
2022/11/19 08:02:36;;;;;;;4.47;4.07;;;8.00;99.90;;;;;;4928649;29;20490;-77
2022/11/19 08:05:03;;;;;;;6.50;3.27;;;7.90;99.90;;;;;;4928790;29;20494;-76
2022/11/19 08:07:31;;;;;;;5.17;3.90;;;7.90;99.90;;;;;;4928387;29;20494;-74
2022/11/19 08:09:58;;;;;;;5.63;3.90;;;7.90;99.90;;;;;;4928595;29;20485;-73
2022/11/19 08:12:24;;;;;;;6.83;3.97;;;7.90;99.90;;;;;;4927576;29;20479;-77
2022/11/19 08:14:51;;;;;;;4.30;3.33;;;7.90;99.90;;;;;;4929053;29;20466;-76
2022/11/19 08:20:03;;;;;;;5.50;4.80;;;7.90;99.90;;;;;;4928835;29;20945;-77
2022/11/19 08:22:34;;;;;;;5.20;4.07;;;7.90;99.90;;;;;;4927259;29;21018;-76
2022/11/19 08:25:01;;;;;;;5.53;4.60;;;7.90;99.90;;;;;;4928582;29;20470;-70
2022/11/19 08:27:28;;;;;;;4.73;3.87;;;7.90;99.90;;;;;;4926836;29;20498;-74
2022/11/19 08:29:55;;;;;;;5.03;4.43;;;7.90;99.90;;;;;;4928220;29;20458;-75
2022/11/19 08:32:21;;;;;;;4.40;4.00;;;7.90;99.90;;;;;;4927774;29;21404;-75
2022/11/19 08:34:48;;;;;;;4.50;3.73;;;7.90;99.90;;;;;;4928210;29;20489;-74
2022/11/19 08:37:15;;;;;;;6.20;4.70;;;8.00;99.90;;;;;;4928162;29;20466;-75
2022/11/19 08:39:43;;;;;;;5.40;4.40;;;8.10;99.90;;;;;;4928267;29;20466;-75
2022/11/19 08:44:54;;;;;;;5.40;3.80;;;8.10;99.90;;;;;;4928343;29;20491;-75
2022/11/19 08:47:21;;;;;;;5.87;4.47;;;8.20;99.90;;;;;;4928241;29;20929;-75
2022/11/19 08:49:48;;;;;;;8.40;5.17;;;8.20;99.90;;;;;;4928570;29;20458;-75
2022/11/19 08:52:15;;;;;;;6.37;4.80;;;8.20;99.90;;;;;;4927311;29;20990;-73
2022/11/19 08:54:43;;;;;;;8.50;4.80;;;8.20;99.90;;;;;;4928610;29;20458;-73
2022/11/19 08:57:10;;;;;;;9.23;5.37;;;8.20;99.90;;;;;;4928440;29;20977;-75
2022/11/19 08:59:36;;;;;;;7.20;4.97;;;8.20;99.90;;;;;;4928601;29;20816;-75
2022/11/19 09:02:03;;;;;;;5.93;4.10;;;8.20;99.90;;;;;;4927469;29;20872;-74
2022/11/19 09:04:30;;;;;;;5.33;4.67;;;8.30;99.90;;;;;;4928151;29;20462;-75
2022/11/19 09:06:59;;;;;;;6.07;4.40;;;8.30;99.90;;;;;;4928498;29;20831;-74
2022/11/19 09:09:25;;;;;;;5.63;4.53;;;8.30;99.90;;;;;;4928221;29;20497;-74
2022/11/19 09:11:54;;;;;;;5.87;4.20;;;8.30;99.90;;;;;;4927257;29;20837;-75
2022/11/19 09:14:21;;;;;;;5.70;5.10;;;8.30;99.90;;;;;;4928551;29;20466;-72
2022/11/19 09:16:48;;;;;;;5.43;4.30;;;8.40;99.90;;;;;;4928502;29;20476;-74
2022/11/19 09:19:14;;;;;;;5.77;4.83;;;8.40;99.90;;;;;;4927910;29;20471;-74
2022/11/19 09:21:41;;;;;;;5.20;4.70;;;8.40;99.90;;;;;;4927164;29;20990;-72
2022/11/19 09:24:08;;;;;;;7.47;4.30;;;8.40;99.90;;;;;;4928179;29;20462;-73
2022/11/19 09:26:35;;;;;;;6.70;4.72;;;8.40;99.90;;;;;;4927476;29;20441;-74
2022/11/19 09:29:03;;;;;;;5.00;4.20;;;8.50;99.90;;;;;;4927259;29;20465;-74
2022/11/19 09:31:30;;;;;;;5.80;3.90;;;8.60;99.90;;;;;;4927494;29;20241;-73
2022/11/19 09:33:57;;;;;;;5.90;4.17;;;8.60;99.90;;;;;;4928453;29;20458;-73
2022/11/19 09:36:23;;;;;;;4.70;4.00;;;8.60;99.90;;;;;;4931215;29;20462;-73
2022/11/19 09:38:50;;;;;;;5.60;4.33;;;8.60;99.90;;;;;;4931356;29;20458;-73
2022/11/19 09:41:34;;;;;;;6.83;5.00;;;8.60;99.90;;;;;;4931024;29;20478;-73
2022/11/19 09:44:12;;;;;;;6.40;4.73;;;8.50;99.90;;;;;;4930937;29;20447;-73
2022/11/19 09:46:44;;;;;;;5.90;4.27;;;8.50;99.90;;;;;;4930993;29;20465;-73
2022/11/19 09:49:16;;;;;;;6.47;4.00;;;8.50;99.90;;;;;;4931294;29;20528;-77
2022/11/19 09:51:51;;;;;;;5.50;4.40;;;8.50;99.90;;;;;;4930426;29;20493;-73
2022/11/19 09:54:21;;;;;;;6.17;4.67;;;8.50;99.90;;;;;;4930682;29;20840;-73
2022/11/19 09:56:49;;;;;;;7.22;5.03;;;8.60;99.90;;;;;;4930431;29;20586;-74
2022/11/19 09:59:24;;;;;;;10.40;5.07;;;8.60;99.90;;;;;;4930921;29;20211;-73
2022/11/19 10:01:52;;;;;;;9.52;5.10;;;8.70;99.90;;;;;;4929323;29;20516;-73
2022/11/19 10:04:22;;;;;;;12.10;5.47;;;8.70;99.90;;;;;;4929996;29;20215;-73
2022/11/19 10:06:55;;;;;;;7.03;5.17;;;8.80;99.90;;;;;;4930840;29;20835;-73
2022/11/19 10:09:44;;;;;;;6.20;4.57;;;8.80;99.90;;;;;;4930600;29;20509;-74
2022/11/19 10:12:26;;;;;;;7.70;5.23;;;8.80;99.90;;;;;;4929960;29;20482;-73
2022/11/19 10:15:16;;;;;;;7.43;4.70;;;8.90;99.90;;;;;;4930558;29;20465;-73
2022/11/19 10:17:55;;;;;;;9.27;5.63;;;8.90;99.90;;;;;;4930508;29;20458;-74
2022/11/19 10:20:48;;;;;;;7.90;4.50;;;8.90;99.90;;;;;;4930150;29;20951;-73
2022/11/19 10:23:18;;;;;;;5.90;4.37;;;8.90;99.90;;;;;;4929721;29;20438;-73
2022/11/19 10:25:46;;;;;;;8.53;4.30;;;8.70;99.90;;;;;;4929029;29;20463;-73
2022/11/19 10:28:15;;;;;;;5.90;4.20;;;9.10;99.90;;;;;;4930534;29;20502;-73
2022/11/19 10:30:50;;;;;;;7.10;4.20;;;9.10;99.90;;;;;;4930388;29;20887;-73
2022/11/19 10:33:21;;;;;;;5.67;4.43;;;9.00;99.90;;;;;;4929327;29;20446;-73
2022/11/19 10:35:51;;;;;;;5.32;4.40;;;9.00;99.90;;;;;;4929819;29;20810;-74
2022/11/19 10:38:22;;;;;;;10.50;5.07;;;9.10;99.90;;;;;;4930004;29;20219;-74
2022/11/19 10:40:53;;;;;;;5.90;3.60;;;9.10;99.90;;;;;;4930407;29;20489;-74
2022/11/19 10:43:27;;;;;;;7.00;3.97;;;9.10;99.90;;;;;;4929825;29;20454;-73
2022/11/19 10:45:56;;;;;;;6.03;4.07;;;9.10;99.90;;;;;;4929686;29;20450;-74
2022/11/19 10:48:25;;;;;;;11.27;3.90;;;9.10;99.90;;;;;;4929605;29;20505;-73
2022/11/19 10:50:54;;;;;;;7.03;3.90;;;9.00;99.90;;;;;;4929148;29;20581;-74
2022/11/19 10:53:27;;;;;;;5.60;3.50;;;8.90;99.90;;;;;;4928917;29;20467;-73
2022/11/19 10:55:57;;;;;;;5.43;3.87;;;8.90;99.90;;;;;;4929806;29;20459;-73
2022/11/19 10:58:26;;;;;;;5.70;3.70;;;8.80;99.90;;;;;;4929963;29;20443;-74
2022/11/19 11:00:56;;;;;;;2.90;2.57;;;8.80;99.90;;;;;;4929443;29;20490;-74
2022/11/19 11:03:26;;;;;;;5.03;2.73;;;8.70;99.90;;;;;;4929270;29;20951;-74
2022/11/19 11:06:04;;;;;;;4.83;3.30;;;8.70;99.90;;;;;;4930022;29;20466;-74
2022/11/19 11:08:31;;;;;;;5.40;3.10;;;8.70;99.90;;;;;;4929138;29;20522;-74
2022/11/19 11:10:59;;;;;;;4.10;2.63;;;8.70;99.90;;;;;;4929565;29;20493;-74
2022/11/19 11:16:26;;;;;;;6.57;3.00;;;8.70;99.90;;;;;;4929408;29;21030;-74
2022/11/19 11:18:56;;;;;;;3.67;2.70;;;8.60;99.90;;;;;;4929582;29;20454;-74
2022/11/19 11:21:35;;;;;;;5.30;2.70;;;8.60;99.90;;;;;;4928216;29;21594;-73
2022/11/19 11:24:03;;;;;;;4.10;2.77;;;8.60;99.90;;;;;;4929180;29;20450;-74
2022/11/19 11:26:33;;;;;;;6.70;2.67;;;8.60;99.90;;;;;;4929461;29;20488;-74
2022/11/19 11:29:03;;;;;;;4.43;2.80;;;8.60;99.90;;;;;;4929093;29;20498;-74
2022/11/19 11:31:42;;;;;;;3.03;2.70;;;8.60;99.90;;;;;;4927914;29;20485;-74
2022/11/19 11:34:27;;;;;;;5.77;2.70;;;8.50;99.90;;;;;;4929325;29;20446;-74
2022/11/19 11:36:55;;;;;;;5.00;2.83;;;8.50;99.90;;;;;;4929230;29;20468;-75
2022/11/19 11:39:26;;;;;;;5.97;2.57;;;8.50;99.90;;;;;;4928810;29;20458;-73
2022/11/19 11:41:53;;;;;;;3.57;2.40;;;8.50;99.90;;;;;;4928324;29;20521;-73
2022/11/19 11:44:21;;;;;;;4.97;2.80;;;8.50;99.90;;;;;;4928513;29;20458;-74
2022/11/19 11:46:52;;;;;;;5.63;2.87;;;8.50;99.90;;;;;;4928821;29;20463;-73
2022/11/19 11:49:26;;;;;;;5.70;2.90;;;8.50;99.90;;;;;;4928734;29;20478;-75
2022/11/19 11:52:18;;;;;;;3.00;2.67;;;8.50;99.90;;;;;;4928334;29;20867;-75
2022/11/19 11:54:57;;;;;;;4.87;2.90;;;8.50;99.90;;;;;;4925548;29;21016;-74
2022/11/19 11:57:26;;;;;;;7.10;3.10;;;8.50;99.90;;;;;;4927126;29;20458;-72
2022/11/19 11:59:53;;;;;;;6.03;3.00;;;8.50;99.90;;;;;;4927869;29;20461;-74
2022/11/19 12:02:28;;;;;;;4.67;2.70;;;8.50;99.90;;;;;;4926998;29;20486;-74
2022/11/19 12:04:56;;;;;;;5.30;3.27;;;8.50;99.90;;;;;;4927864;29;20473;-72
2022/11/19 12:07:46;;;;;;;4.53;3.40;;;8.50;99.90;;;;;;4927165;29;20454;-72
2022/11/19 12:10:25;;;;;;;5.00;3.47;;;8.40;99.90;;;;;;4927252;29;20617;-72
2022/11/19 12:13:10;;;;;;;8.10;4.00;;;8.40;99.90;;;;;;4927397;29;20451;-72
2022/11/19 12:15:48;;;;;;;4.97;3.50;;;8.40;99.90;;;;;;4927830;29;20522;-72
2022/11/19 12:18:28;;;;;;;9.70;4.60;;;8.40;99.90;;;;;;4927237;29;20461;-72
2022/11/19 12:21:04;;;;;;;5.93;3.80;;;8.40;99.90;;;;;;4927315;29;20481;-73
2022/11/19 12:23:48;;;;;;;8.20;3.80;;;8.40;99.90;;;;;;4926775;29;21312;-72
2022/11/19 12:26:25;;;;;;;6.03;3.70;;;8.50;99.90;;;;;;4927609;29;20531;-72
2022/11/19 12:29:05;;;;;;;6.80;4.27;;;8.40;99.90;;;;;;4927098;29;20478;-72
2022/11/19 12:31:47;;;;;;;6.03;3.60;;;8.40;99.90;;;;;;4927867;29;20485;-72
2022/11/19 12:34:49;;;;;;;4.10;3.70;;;8.40;99.90;;;;;;4927546;29;20450;-72
2022/11/19 12:37:30;;;;;;;6.53;3.10;;;8.40;99.90;;;;;;4927316;29;20476;-72
2022/11/19 12:40:11;;;;;;;4.37;3.57;;;8.30;99.90;;;;;;4927671;29;20461;-72
2022/11/19 12:42:49;;;;;;;5.33;3.47;;;8.30;99.90;;;;;;4926484;29;21391;-72
2022/11/19 12:45:29;;;;;;;7.43;3.80;;;8.20;99.90;;;;;;4926865;29;20946;-73
2022/11/19 12:48:25;;;;;;;7.33;4.20;;;8.20;99.90;;;;;;4927979;29;20507;-73
2022/11/19 12:51:00;;;;;;;5.23;4.73;;;8.20;99.90;;;;;;4928084;29;20474;-73
2022/11/19 12:53:44;;;;;;;11.80;5.07;;;8.30;99.90;;;;;;4926937;29;20461;-73
2022/11/19 12:56:24;;;;;;;12.03;4.47;;;8.30;99.90;;;;;;4928481;29;20474;-73
2022/11/19 12:59:00;;;;;;;7.67;4.07;;;8.30;99.90;;;;;;4928229;29;20958;-73
2022/11/19 13:01:33;;;;;;;6.80;3.90;;;8.30;99.90;;;;;;4928085;29;20976;-73
2022/11/19 13:04:04;;;;;;;6.90;4.70;;;8.20;99.90;;;;;;4927604;29;20466;-73
2022/11/19 13:06:41;;;;;;;5.87;4.40;;;8.20;99.90;;;;;;4927823;29;20446;-73
2022/11/19 13:09:15;;;;;;;6.20;4.67;;;8.10;99.90;;;;;;4929948;29;20490;-73
2022/11/19 13:11:45;;;;;;;3.97;3.67;;;8.10;99.90;;;;;;4930884;29;20990;-74
2022/11/19 13:14:20;;;;;;;4.57;3.93;;;8.10;99.90;;;;;;4931553;29;21238;-75
2022/11/19 13:16:47;;;;;;;11.43;4.83;;;8.10;99.90;;;;;;4931817;29;20552;-74
2022/11/19 13:19:29;;;;;;;4.60;4.13;;;8.10;99.90;;;;;;4931753;29;21139;-73
2022/11/19 13:22:04;;;;;;;6.13;4.77;;;8.10;99.90;;;;;;4930831;29;20564;-75
2022/11/19 13:24:36;;;;;;;6.90;5.00;;;8.10;99.90;;;;;;4931790;29;20457;-76
2022/11/19 13:27:06;;;;;;;7.87;4.93;;;8.10;99.90;;;;;;4931664;29;20472;-75
2022/11/19 13:29:40;;;;;;;8.60;5.57;;;8.10;99.90;;;;;;4932007;29;20499;-76
2022/11/19 13:32:18;;;;;;;6.30;5.60;;;8.10;99.90;;;;;;4930871;29;20557;-76
2022/11/19 13:35:01;;;;;;;13.43;7.17;;;8.10;99.90;;;;;;4931821;29;20568;-74
2022/11/19 13:37:39;;;;;;;8.27;6.17;;;8.10;99.90;;;;;;4931550;29;20505;-75
2022/11/19 13:40:16;;;;;;;15.00;6.17;;;8.00;99.90;;;;;;4931621;29;21096;-75
2022/11/19 13:45:28;;;;;;;17.73;8.67;;;8.10;99.90;;;;;;4931398;29;20437;-77
2022/11/19 13:47:58;;;;;;;14.40;7.83;;;8.20;99.90;;;;;;4931283;29;20466;-76
2022/11/19 13:50:30;;;;;;;8.63;6.63;;;8.10;99.90;;;;;;4931332;29;20863;-76
2022/11/19 13:53:02;;;;;;;11.30;7.47;;;8.10;99.90;;;;;;4930837;29;20466;-76
2022/11/19 13:55:36;;;;;;;9.10;6.60;;;8.10;99.90;;;;;;4931828;29;20455;-76
2022/11/19 13:58:16;;;;;;;12.23;6.90;;;8.10;99.90;;;;;;4931508;29;20466;-74
2022/11/19 14:00:59;;;;;;;11.40;7.33;;;8.10;99.90;;;;;;4931221;29;20497;-75
2022/11/19 14:03:44;;;;;;;8.57;6.10;;;8.10;99.90;;;;;;4930283;29;20466;-75
2022/11/19 14:06:32;;;;;;;9.57;6.50;;;8.10;99.90;;;;;;4930946;29;20903;-76
2022/11/19 14:09:13;;;;;;;9.10;6.60;;;8.10;99.90;;;;;;4931023;29;20494;-75
2022/11/19 14:12:21;;;;;;;11.17;6.80;;;8.10;99.90;;;;;;4930279;29;20486;-74
2022/11/19 14:27:14;;;;;;;10.93;7.77;;;8.10;99.90;;;;;;4931131;29;20418;-75
2022/11/19 14:29:58;;;;;;;10.77;8.73;;;8.10;99.90;;;;;;4930633;29;20493;-75
2022/11/19 14:32:31;;;;;;;9.63;7.60;;;8.10;99.90;;;;;;4930149;29;20478;-75
2022/11/19 14:35:33;;;;;;;8.70;6.43;;;8.00;99.90;;;;;;4931574;29;20476;-75
2022/11/19 14:38:35;;;;;;;9.47;6.60;;;8.00;99.90;;;;;;4930752;29;20508;-76
2022/11/19 14:41:07;;;;;;;16.73;15.07;;;7.90;99.90;;;;;;4927311;29;21002;-74
2022/11/19 14:44:09;;;;;;;11.20;10.00;;;7.90;99.90;;;;;;4929421;29;20442;-75
2022/11/19 14:46:37;;;;;;;12.53;11.07;;;7.80;99.90;;;;;;4930720;29;20442;-76
2022/11/19 14:49:18;;;;;;;10.70;9.60;;;7.80;99.90;;;;;;4930303;29;20497;-74
2022/11/19 14:51:52;;;;;;;9.70;7.63;;;7.80;99.90;;;;;;4928911;29;20561;-75
2022/11/19 14:54:34;;;;;;;7.73;6.67;;;7.80;99.90;;;;;;4929649;29;20442;-76
2022/11/19 14:57:05;;;;;;;10.60;7.13;;;7.80;99.90;;;;;;4929264;29;21036;-75
2022/11/19 14:59:36;;;;;;;12.37;11.17;;;7.80;99.90;;;;;;4929338;29;20457;-75
2022/11/19 15:02:11;;;;;;;8.13;6.77;;;7.80;99.90;;;;;;4928383;29;20489;-75
2022/11/19 15:04:41;;;;;;;7.40;6.67;;;7.70;99.90;;;;;;4928851;29;20493;-75
2022/11/19 15:07:11;;;;;;;8.10;6.67;;;7.70;99.90;;;;;;4929124;29;21172;-75
2022/11/19 15:10:29;;;;;;;11.67;8.57;;;7.70;99.90;;;;;;4928359;29;20502;-76
2022/11/19 15:13:34;;;;;;;9.67;5.67;;;7.80;99.90;;;;;;4928475;29;20884;-75
2022/11/19 15:16:11;;;;;;;5.43;4.57;;;7.90;99.90;;;;;;4930068;29;20449;-76
2022/11/19 15:19:21;;;;;;;6.20;5.03;;;7.90;99.90;;;;;;4929619;29;20454;-76
2022/11/19 15:22:05;;;;;;;5.60;4.67;;;7.90;99.90;;;;;;4928784;29;20490;-76
2022/11/19 15:24:54;;;;;;;4.70;3.83;;;7.90;99.90;;;;;;4929989;29;20481;-75
2022/11/19 15:27:34;;;;;;;5.23;4.73;;;7.90;99.90;;;;;;4929984;29;20829;-75
2022/11/19 15:30:19;;;;;;;5.70;4.20;;;7.90;99.90;;;;;;4929442;29;21028;-76
2022/11/19 15:33:12;;;;;;;4.00;3.47;;;7.90;99.90;;;;;;4928518;29;20494;-75
2022/11/19 15:36:05;;;;;;;3.80;2.50;;;7.90;99.90;;;;;;4929398;29;20458;-75
2022/11/19 15:38:37;;;;;;;3.90;2.80;;;7.90;99.90;;;;;;4928684;29;20485;-75
2022/11/19 15:41:05;;;;;;;2.73;2.53;;;7.90;99.90;;;;;;4929354;29;20843;-75
2022/11/19 15:43:39;;;;;;;2.33;2.13;;;7.90;99.90;;;;;;4928726;29;20458;-76
2022/11/19 15:46:10;;;;;;;3.33;2.10;;;7.90;99.90;;;;;;4929523;29;20457;-75
2022/11/19 15:48:47;;;;;;;2.80;2.60;;;7.80;99.90;;;;;;4929026;29;20458;-76
2022/11/19 15:51:16;;;;;;;3.33;3.07;;;7.80;99.90;;;;;;4929452;29;20506;-75
2022/11/19 15:53:58;;;;;;;3.60;3.33;;;7.80;99.90;;;;;;4928405;29;20459;-75
2022/11/19 15:56:25;;;;;;;6.70;4.00;;;7.90;99.90;;;;;;4929269;29;20466;-75
2022/11/19 15:58:52;;;;;;;5.53;4.07;;;7.90;99.90;;;;;;4929092;29;20459;-75
2022/11/19 16:01:21;;;;;;;3.87;3.57;;;7.90;99.90;;;;;;4928851;29;20490;-76
2022/11/19 16:03:51;;;;;;;4.50;4.10;;;8.00;99.90;;;;;;4928660;29;20466;-77
2022/11/19 16:06:21;;;;;;;5.37;3.70;;;8.00;99.90;;;;;;4929253;29;20495;-76
2022/11/19 16:08:52;;;;;;;3.10;2.80;;;8.00;99.90;;;;;;4929117;29;20474;-77
2022/11/19 16:17:33;;;;;;;4.07;3.77;;;8.00;99.90;;;;;;4890798;29;20436;-71
2022/11/19 16:20:15;;;;;;;3.50;3.20;;;7.90;99.90;;;;;;4891104;29;20488;-73
2022/11/19 16:22:46;;;;;;;4.50;3.17;;;8.00;99.90;;;;;;4916129;29;20805;-73
2022/11/19 16:25:14;;;;;;;3.30;3.00;;;7.90;99.90;;;;;;4931846;29;20450;-72
2022/11/19 16:27:42;;;;;;;4.97;4.30;;;7.90;99.90;;;;;;4931677;29;20846;-73
2022/11/19 16:30:18;;;;;;;10.53;6.90;;;7.80;99.90;;;;;;4931578;29;20524;-74
2022/11/19 16:32:44;;;;;;;8.17;6.27;;;7.90;99.90;;;;;;4930912;29;20458;-73
2022/11/19 16:35:21;;;;;;;7.13;5.73;;;7.80;99.90;;;;;;4931574;29;20459;-72
2022/11/19 16:37:49;;;;;;;7.10;5.70;;;7.80;99.90;;;;;;4931065;29;20470;-72
2022/11/19 16:40:17;;;;;;;6.80;5.17;;;7.80;99.90;;;;;;4930852;29;20454;-72
2022/11/19 16:42:53;;;;;;;5.73;4.87;;;7.70;99.90;;;;;;4932094;29;20469;-72
2022/11/19 16:45:23;;;;;;;11.40;6.90;;;7.60;99.90;;;;;;4934955;29;20456;-71
2022/11/19 16:47:56;;;;;;;7.73;6.70;;;7.50;99.90;;;;;;4934270;29;20474;-72
2022/11/19 16:50:30;;;;;;;6.80;5.07;;;7.40;99.90;;;;;;4934782;29;20584;-72
2022/11/19 16:52:58;;;;;;;6.80;5.30;;;7.50;99.90;;;;;;4934384;29;20568;-72
2022/11/19 16:55:49;;;;;;;5.97;4.90;;;7.40;99.90;;;;;;4934984;29;20454;-72
2022/11/19 16:58:25;;;;;;;6.50;5.43;;;7.40;99.90;;;;;;4934748;29;20450;-72
2022/11/19 17:00:58;;;;;;;6.53;5.20;;;7.40;99.90;;;;;;4934408;29;20508;-72
2022/11/19 17:03:33;;;;;;;6.67;4.87;;;7.40;99.90;;;;;;4934161;29;20473;-72
2022/11/19 17:06:03;;;;;;;10.07;7.20;;;7.40;99.90;;;;;;4934469;29;20442;-72
2022/11/19 17:08:32;;;;;;;8.57;6.73;;;7.30;99.90;;;;;;4933708;29;20477;-72
2022/11/19 17:14:17;;;;;;;6.03;5.37;;;7.20;99.90;;;;;;4934351;29;21131;-72
2022/11/19 17:16:46;;;;;;;7.97;5.50;;;7.20;99.90;;;;;;4934114;29;20454;-71
2022/11/19 17:19:23;;;;;;;8.40;6.70;;;7.20;99.90;;;;;;4934269;29;20462;-72
2022/11/19 17:21:57;;;;;;;7.10;6.00;;;7.10;99.90;;;;;;4933569;29;20489;-72
2022/11/19 17:24:25;;;;;;;5.90;5.10;;;7.10;99.90;;;;;;4934266;29;20477;-72
2022/11/19 17:26:52;;;;;;;10.27;6.83;;;7.10;99.90;;;;;;4934336;29;20886;-72
2022/11/19 17:29:23;;;;;;;7.47;6.30;;;7.10;99.90;;;;;;4934210;29;20466;-72
2022/11/19 17:31:53;;;;;;;9.00;4.50;;;7.10;99.90;;;;;;4933800;29;20470;-72
2022/11/19 17:34:23;;;;;;;6.73;4.80;;;7.10;99.90;;;;;;4934017;29;20470;-71
2022/11/19 17:36:50;;;;;;;5.63;4.60;;;7.10;99.90;;;;;;4933881;29;20461;-72
2022/11/19 17:39:18;;;;;;;6.33;3.97;;;7.10;99.90;;;;;;4933478;29;20470;-72
2022/11/19 17:44:38;;;;;;;17.57;10.60;;;7.10;99.90;;;;;;4933573;29;20517;-71
2022/11/19 17:47:13;;;;;;;7.70;5.30;;;7.10;99.90;;;;;;4933940;29;20465;-72
2022/11/19 17:49:40;;;;;;;4.07;3.63;;;7.00;99.90;;;;;;4934182;29;20442;-72
2022/11/19 17:52:19;;;;;;;6.53;5.47;;;6.90;99.90;;;;;;4934188;29;20475;-71
2022/11/19 17:54:47;;;;;;;7.80;6.33;;;6.80;99.90;;;;;;4933646;29;20468;-71
2022/11/19 17:57:14;;;;;;;6.33;5.23;;;6.80;99.90;;;;;;4933953;29;21027;-72
2022/11/19 17:59:41;;;;;;;6.40;5.80;;;6.80;99.90;;;;;;4933503;29;20466;-78
2022/11/19 18:02:13;;;;;;;5.70;4.27;;;6.80;99.90;;;;;;4930790;29;20494;-77
2022/11/19 18:04:41;;;;;;;6.33;4.23;;;6.80;99.90;;;;;;4931042;29;20446;-75
2022/11/19 18:07:08;;;;;;;6.53;5.90;;;6.80;99.90;;;;;;4930625;29;20835;-76
2022/11/19 18:09:35;;;;;;;7.13;6.07;;;6.80;99.90;;;;;;4931104;29;20454;-75
2022/11/19 18:12:04;;;;;;;8.10;7.17;;;6.80;99.90;;;;;;4930132;29;20485;-74
2022/11/19 18:14:31;;;;;;;13.60;8.67;;;6.80;99.90;;;;;;4930601;29;20958;-74
2022/11/19 18:16:58;;;;;;;10.50;8.30;;;6.90;99.90;;;;;;4930772;29;20469;-75
2022/11/19 18:19:27;;;;;;;9.30;8.40;;;6.90;99.90;;;;;;4931051;29;20469;-74
2022/11/19 18:21:55;;;;;;;9.70;8.00;;;6.90;99.90;;;;;;4929166;29;20478;-75
2022/11/19 18:24:22;;;;;;;10.90;7.80;;;6.90;99.90;;;;;;4931133;29;20465;-75
2022/11/19 18:26:49;;;;;;;10.07;8.80;;;6.90;99.90;;;;;;4930520;29;20477;-75
2022/11/19 18:29:17;;;;;;;13.57;8.80;;;6.90;99.90;;;;;;4930650;29;20469;-77
2022/11/19 18:31:45;;;;;;;12.10;9.20;;;6.90;99.90;;;;;;4930229;29;20521;-76
2022/11/19 18:34:17;;;;;;;11.17;9.03;;;6.90;99.90;;;;;;4930318;29;20472;-75
2022/11/19 18:36:43;;;;;;;11.20;8.60;;;7.00;99.90;;;;;;4930701;29;20469;-75
2022/11/19 18:39:11;;;;;;;14.50;9.70;;;7.00;99.90;;;;;;4930723;29;20466;-75
2022/11/19 18:41:38;;;;;;;25.83;17.00;;;6.90;99.90;;;;;;4930051;29;20565;-75
2022/11/19 18:46:51;;;;;;;19.13;14.33;;;6.80;99.90;;;;;;4930478;29;20434;-77
2022/11/19 18:49:17;;;;;;;22.00;14.73;;;6.80;99.90;;;;;;4930723;29;20470;-77
2022/11/19 18:51:45;;;;;;;26.97;18.77;;;6.80;99.90;;;;;;4928895;29;20552;-76
2022/11/19 18:54:12;;;;;;;21.37;14.67;;;6.80;99.90;;;;;;4929863;29;20466;-75
2022/11/19 18:56:39;;;;;;;24.00;16.33;;;6.80;99.90;;;;;;4930310;29;20472;-75
2022/11/19 18:59:06;;;;;;;24.30;16.10;;;6.70;99.90;;;;;;4930038;29;20466;-76
2022/11/19 19:01:33;;;;;;;23.90;16.27;;;6.70;99.90;;;;;;4931096;29;20561;-75
2022/11/19 19:04:01;;;;;;;20.03;14.33;;;6.70;99.90;;;;;;4930029;29;20469;-75